X  Lukk Metar værinformasjon om luftfart     KDNN Dalton Municipal Airport
Temperatur
28°C Temperatur
20°C Duggpunkt
62% Luftfuktighet



Vind
0 M/S
0 MPT
0 KM/T
0 KNP



Stille
N
Nåværende forhold

Klart Klart
Trykk 1012.19 (hPa) - 29.89 (inHg)
Sikt 10 (mil) - 16.1 (km)
Flyplass
Flyplass-kode KDNN

Plassering: Dalton Municipal Airport
Avstand: 34 (km)

Metar:
KDNN 251935Z AUTO 00000KT 10SM CLR 28/20 A2989 RMK AO2 T02750203

Tid: 05-25-2024 15:35 EDT